Time;durP1;ratioP1;P1;durP2;ratioP2;P2;SDS_P1;SDS_P2;PMS_P1;PMS_P2;Temp;Humidity;BMP_temperature;BMP_pressure;BME280_temperature;BME280_humidity;BME280_pressure;Samples;Min_cycle;Max_cycle;Signal;HPM_P1;HPM_P2
2023/04/07 00:00:49;;;;;;;16.07;9.13;;;7.60;84.10;;;;;;4995188;28;20558;-74
2023/04/07 00:03:15;;;;;;;16.43;8.70;;;7.60;84.70;;;;;;4996332;28;20701;-73
2023/04/07 00:05:41;;;;;;;15.87;8.53;;;7.70;85.20;;;;;;4994910;28;20201;-74
2023/04/07 00:08:06;;;;;;;16.67;9.00;;;7.70;85.00;;;;;;4997949;28;20476;-73
2023/04/07 00:10:32;;;;;;;14.53;7.40;;;7.80;85.20;;;;;;4994987;28;20241;-73
2023/04/07 00:12:58;;;;;;;17.90;8.80;;;7.90;85.00;;;;;;4992448;28;20210;-74
2023/04/07 00:15:23;;;;;;;14.20;8.60;;;7.90;84.30;;;;;;4991173;28;20214;-73
2023/04/07 00:17:49;;;;;;;18.17;9.37;;;7.90;84.00;;;;;;4996036;28;20244;-74
2023/04/07 00:20:15;;;;;;;14.90;8.30;;;7.80;84.00;;;;;;4991974;28;20186;-74
2023/04/07 00:22:40;;;;;;;14.00;7.70;;;7.80;84.40;;;;;;4993669;28;20183;-73
2023/04/07 00:25:06;;;;;;;15.50;8.17;;;7.90;84.40;;;;;;4985284;28;20206;-74
2023/04/07 00:27:32;;;;;;;13.03;7.53;;;7.90;84.70;;;;;;4995189;28;20201;-73
2023/04/07 00:29:57;;;;;;;18.57;8.53;;;7.80;84.40;;;;;;4991596;28;20992;-74
2023/04/07 00:32:23;;;;;;;15.17;7.60;;;7.80;84.00;;;;;;4991658;28;20271;-74
2023/04/07 00:34:48;;;;;;;11.90;6.93;;;7.70;83.80;;;;;;4990199;28;20245;-74
2023/04/07 00:37:14;;;;;;;12.90;7.33;;;7.70;84.00;;;;;;4992795;28;20618;-73
2023/04/07 00:39:40;;;;;;;14.43;7.10;;;7.70;84.10;;;;;;4994938;28;20209;-73
2023/04/07 00:42:06;;;;;;;17.43;7.40;;;7.70;84.30;;;;;;4999692;28;20194;-73
2023/04/07 00:44:32;;;;;;;13.77;7.87;;;7.80;84.30;;;;;;4986044;28;20218;-74
2023/04/07 00:46:58;;;;;;;16.27;8.40;;;7.80;84.30;;;;;;4990428;28;20863;-75
2023/04/07 00:49:27;;;;;;;16.20;7.73;;;7.80;84.30;;;;;;4992666;28;20514;-75
2023/04/07 00:51:56;;;;;;;14.53;8.20;;;7.80;84.60;;;;;;4992511;28;20175;-75
2023/04/07 00:54:26;;;;;;;11.53;7.13;;;7.90;84.90;;;;;;4989129;28;21025;-74
2023/04/07 00:56:52;;;;;;;13.63;7.80;;;7.90;84.70;;;;;;4989924;28;20445;-74
2023/04/07 00:59:18;;;;;;;17.63;8.23;;;7.90;84.60;;;;;;4990116;28;21190;-74
2023/04/07 01:02:01;;;;;;;14.80;6.53;;;7.90;84.30;;;;;;4992797;28;20425;-74
2023/04/07 01:04:37;;;;;;;16.60;7.73;;;7.80;84.40;;;;;;4988470;28;20530;-74
2023/04/07 01:07:08;;;;;;;17.90;8.03;;;7.80;84.60;;;;;;4986689;28;20468;-75
2023/04/07 01:09:44;;;;;;;13.90;7.30;;;7.80;84.90;;;;;;4986592;28;20449;-74
2023/04/07 01:12:33;;;;;;;15.43;7.70;;;7.80;85.50;;;;;;4990414;28;20480;-74
2023/04/07 01:15:06;;;;;;;16.80;8.33;;;7.80;85.30;;;;;;4986750;28;20488;-74
2023/04/07 01:17:34;;;;;;;12.20;7.23;;;7.80;85.50;;;;;;4990429;28;20417;-74
2023/04/07 01:20:07;;;;;;;14.60;8.00;;;7.80;85.70;;;;;;4991171;28;20786;-74
2023/04/07 01:22:55;;;;;;;21.40;8.97;;;7.90;85.90;;;;;;4990220;28;20421;-73
2023/04/07 01:25:35;;;;;;;18.23;8.50;;;7.90;85.70;;;;;;4985660;28;20969;-74
2023/04/07 01:28:02;;;;;;;14.70;7.60;;;7.90;85.50;;;;;;4989515;28;20548;-74
2023/04/07 01:30:37;;;;;;;17.00;8.13;;;7.80;85.50;;;;;;4991646;28;20425;-73
2023/04/07 01:33:03;;;;;;;14.57;7.60;;;7.80;85.70;;;;;;4986500;28;20424;-74
2023/04/07 01:35:31;;;;;;;14.73;8.30;;;7.80;85.90;;;;;;4983839;28;20453;-74
2023/04/07 01:37:59;;;;;;;13.10;7.70;;;7.80;85.70;;;;;;4993677;28;20432;-74
2023/04/07 01:40:25;;;;;;;15.07;8.40;;;7.70;85.50;;;;;;4990991;28;20429;-74
2023/04/07 01:42:52;;;;;;;15.90;8.17;;;7.70;85.70;;;;;;4989065;28;20460;-73
2023/04/07 01:45:19;;;;;;;13.30;7.60;;;7.70;85.70;;;;;;4982295;28;20489;-74
2023/04/07 01:47:45;;;;;;;16.27;7.60;;;7.70;85.70;;;;;;4990188;28;20964;-74
2023/04/07 01:50:12;;;;;;;16.87;8.70;;;7.60;85.70;;;;;;4988564;28;20468;-74
2023/04/07 01:52:39;;;;;;;15.47;7.80;;;7.70;85.90;;;;;;4989596;28;20926;-73
2023/04/07 01:55:06;;;;;;;15.33;8.30;;;7.70;86.00;;;;;;4992011;28;20457;-74
2023/04/07 01:57:32;;;;;;;18.23;8.47;;;7.70;86.00;;;;;;4985556;28;20873;-74
2023/04/07 01:59:58;;;;;;;19.13;9.10;;;7.70;85.90;;;;;;4987638;28;20516;-74
2023/04/07 02:02:24;;;;;;;15.90;8.73;;;7.70;85.60;;;;;;4989400;28;20426;-74
2023/04/07 02:04:59;;;;;;;15.37;8.07;;;7.70;85.60;;;;;;4987798;28;20465;-72
2023/04/07 02:07:41;;;;;;;14.93;7.93;;;7.70;85.60;;;;;;4987045;28;20467;-75
2023/04/07 02:10:12;;;;;;;15.00;7.60;;;7.70;85.30;;;;;;4990706;28;20429;-75
2023/04/07 02:12:40;;;;;;;23.20;9.53;;;7.80;85.30;;;;;;4989906;28;20422;-74
2023/04/07 02:15:08;;;;;;;14.37;7.70;;;7.80;85.20;;;;;;4984595;28;21023;-72
2023/04/07 02:17:37;;;;;;;15.90;8.90;;;7.80;84.90;;;;;;4990359;28;20426;-73
2023/04/07 02:20:04;;;;;;;17.57;7.47;;;7.80;84.70;;;;;;4989566;28;20429;-74
2023/04/07 02:22:32;;;;;;;16.97;8.70;;;7.80;84.90;;;;;;4990469;28;20796;-75
2023/04/07 02:24:57;;;;;;;15.70;8.60;;;7.80;84.90;;;;;;4985577;28;20457;-74
2023/04/07 02:27:23;;;;;;;16.87;9.53;;;7.80;85.00;;;;;;4990154;28;20462;-75
2023/04/07 02:29:48;;;;;;;21.60;9.40;;;7.80;85.00;;;;;;4990894;28;20194;-72
2023/04/07 02:32:14;;;;;;;15.17;7.77;;;7.80;84.90;;;;;;4990131;28;20171;-74
2023/04/07 02:34:40;;;;;;;16.50;8.07;;;7.90;84.70;;;;;;4987914;28;20575;-73
2023/04/07 02:37:06;;;;;;;19.00;8.57;;;7.80;84.40;;;;;;4991541;28;20183;-75
2023/04/07 02:39:32;;;;;;;19.60;8.93;;;7.90;84.30;;;;;;4993883;28;20433;-73
2023/04/07 02:41:57;;;;;;;18.40;8.80;;;7.90;84.30;;;;;;4994070;28;20237;-73
2023/04/07 02:44:23;;;;;;;18.10;8.50;;;7.90;84.10;;;;;;4994486;28;20352;-72
2023/04/07 02:46:48;;;;;;;21.03;10.03;;;7.90;84.10;;;;;;4998687;28;20257;-74
2023/04/07 02:49:14;;;;;;;16.13;8.57;;;7.90;83.70;;;;;;4995487;28;20185;-72
2023/04/07 02:51:39;;;;;;;15.63;8.23;;;7.90;83.70;;;;;;4994775;28;20190;-73
2023/04/07 02:54:05;;;;;;;13.60;7.97;;;7.80;83.60;;;;;;4992977;28;20253;-74
2023/04/07 02:56:31;;;;;;;14.90;7.80;;;7.80;83.40;;;;;;4994565;28;20241;-73
2023/04/07 02:58:57;;;;;;;15.37;8.57;;;7.90;83.10;;;;;;4991251;28;20183;-75
2023/04/07 03:01:22;;;;;;;14.50;8.37;;;7.90;83.00;;;;;;4990794;28;20433;-75
2023/04/07 03:03:48;;;;;;;16.43;7.70;;;7.90;82.70;;;;;;4989821;28;21019;-74
2023/04/07 03:06:14;;;;;;;16.90;8.50;;;7.90;82.50;;;;;;4989790;28;20199;-74
2023/04/07 03:08:41;;;;;;;17.17;8.40;;;7.90;82.40;;;;;;4993195;28;20909;-74
2023/04/07 03:11:06;;;;;;;16.67;8.47;;;7.90;82.50;;;;;;4994630;28;20182;-74
2023/04/07 03:13:32;;;;;;;18.77;8.60;;;7.90;82.50;;;;;;4993128;28;20797;-75
2023/04/07 03:15:57;;;;;;;15.40;8.90;;;7.90;82.40;;;;;;4990005;28;20202;-73
2023/04/07 03:18:23;;;;;;;13.27;7.67;;;7.90;82.20;;;;;;4992562;28;20190;-75
2023/04/07 03:20:49;;;;;;;15.83;8.87;;;7.90;81.80;;;;;;4987842;28;20215;-76
2023/04/07 03:23:14;;;;;;;19.10;8.50;;;7.90;82.10;;;;;;4994092;28;20213;-73
2023/04/07 03:25:40;;;;;;;17.20;9.20;;;7.90;82.40;;;;;;4988959;28;20240;-73
2023/04/07 03:28:06;;;;;;;14.10;8.17;;;7.90;82.50;;;;;;4992917;28;20214;-72
2023/04/07 03:30:32;;;;;;;14.30;8.47;;;8.00;82.40;;;;;;4996774;28;20563;-71
2023/04/07 03:32:57;;;;;;;14.20;8.20;;;8.00;82.40;;;;;;4993887;28;20186;-71
2023/04/07 03:35:23;;;;;;;16.53;8.43;;;7.90;82.50;;;;;;4989831;28;20221;-74
2023/04/07 03:37:48;;;;;;;17.07;8.70;;;7.90;82.70;;;;;;4993614;28;20190;-70
2023/04/07 03:40:14;;;;;;;23.27;10.23;;;8.00;82.80;;;;;;4996808;28;20202;-71
2023/04/07 03:42:39;;;;;;;18.67;9.80;;;8.00;83.10;;;;;;4994558;28;20282;-73
2023/04/07 03:45:06;;;;;;;17.80;9.27;;;7.90;82.80;;;;;;4990588;28;20680;-72
2023/04/07 03:47:31;;;;;;;18.43;8.90;;;7.90;83.00;;;;;;4995097;28;20214;-71
2023/04/07 03:49:57;;;;;;;19.03;9.97;;;7.80;83.10;;;;;;4995157;28;20461;-74
2023/04/07 03:52:22;;;;;;;19.50;9.90;;;7.80;83.40;;;;;;4992823;28;20187;-71
2023/04/07 03:54:48;;;;;;;20.93;9.03;;;7.90;83.40;;;;;;4990375;28;20218;-72
2023/04/07 03:57:13;;;;;;;15.47;8.13;;;7.80;83.30;;;;;;4992361;28;20186;-72
2023/04/07 03:59:39;;;;;;;16.10;9.20;;;7.90;83.00;;;;;;4992253;28;20287;-73
2023/04/07 04:02:05;;;;;;;17.60;8.20;;;7.90;82.40;;;;;;4987939;28;20803;-73
2023/04/07 04:04:30;;;;;;;17.93;9.50;;;7.80;82.40;;;;;;4991322;28;20217;-72
2023/04/07 04:06:56;;;;;;;16.67;8.97;;;7.90;81.90;;;;;;4991511;28;20217;-71
2023/04/07 04:09:21;;;;;;;13.83;7.83;;;7.90;81.50;;;;;;4998596;28;20190;-73
2023/04/07 04:11:48;;;;;;;18.10;8.93;;;7.90;81.20;;;;;;4996757;28;20225;-72
2023/04/07 04:14:13;;;;;;;15.87;8.33;;;7.90;81.70;;;;;;4990432;28;20218;-73
2023/04/07 04:16:39;;;;;;;16.17;9.17;;;7.90;81.10;;;;;;4993614;28;20426;-72
2023/04/07 04:19:04;;;;;;;16.13;8.53;;;7.90;81.10;;;;;;4994274;28;20187;-74
2023/04/07 04:21:30;;;;;;;18.93;8.87;;;8.00;80.90;;;;;;4992953;28;20639;-74
2023/04/07 04:23:55;;;;;;;20.00;9.23;;;8.00;80.50;;;;;;4988142;28;20223;-72
2023/04/07 04:26:24;;;;;;;17.33;9.33;;;8.00;80.00;;;;;;4997291;28;20195;-72
2023/04/07 04:28:50;;;;;;;17.70;8.80;;;7.90;79.60;;;;;;4994548;28;20226;-73
2023/04/07 04:31:16;;;;;;;15.30;8.20;;;7.90;79.30;;;;;;4992298;28;20517;-72
2023/04/07 04:33:41;;;;;;;15.77;8.67;;;7.80;79.30;;;;;;4984742;28;20652;-73
2023/04/07 04:36:07;;;;;;;15.53;8.47;;;7.80;79.30;;;;;;4989643;28;20202;-71
2023/04/07 04:38:32;;;;;;;15.90;9.10;;;7.90;79.50;;;;;;4991315;28;20197;-71
2023/04/07 04:40:58;;;;;;;16.17;9.37;;;7.90;79.30;;;;;;4990638;28;20558;-73
2023/04/07 04:43:23;;;;;;;22.17;11.07;;;8.00;79.50;;;;;;4986572;28;20200;-74
2023/04/07 04:45:49;;;;;;;16.80;9.83;;;7.90;79.20;;;;;;4990552;28;20245;-72
2023/04/07 04:48:16;;;;;;;19.37;8.77;;;8.00;79.00;;;;;;4992782;28;20325;-72
2023/04/07 04:50:42;;;;;;;19.40;9.40;;;8.00;79.30;;;;;;4993411;28;20496;-72
2023/04/07 04:53:09;;;;;;;17.83;9.00;;;8.00;79.30;;;;;;4993094;28;20814;-72
2023/04/07 04:55:34;;;;;;;15.27;8.23;;;8.00;79.60;;;;;;4986493;28;20577;-73
2023/04/07 04:58:00;;;;;;;18.60;8.93;;;8.10;80.20;;;;;;4988441;28;20979;-71
2023/04/07 05:00:26;;;;;;;15.73;8.00;;;8.20;80.60;;;;;;4989003;28;20429;-72
2023/04/07 05:02:51;;;;;;;16.90;8.23;;;8.20;80.80;;;;;;4992017;28;20233;-73
2023/04/07 05:05:17;;;;;;;18.80;8.80;;;8.10;80.80;;;;;;4988850;28;20694;-73
2023/04/07 05:07:42;;;;;;;15.67;8.70;;;8.10;80.90;;;;;;4990280;28;20582;-72
2023/04/07 05:10:08;;;;;;;16.23;8.50;;;8.10;80.80;;;;;;4992167;28;20718;-71
2023/04/07 05:12:34;;;;;;;17.40;8.70;;;8.10;80.80;;;;;;4992467;28;20253;-72
2023/04/07 05:15:00;;;;;;;14.30;8.63;;;8.10;80.90;;;;;;4990324;28;20238;-72
2023/04/07 05:17:25;;;;;;;17.67;9.80;;;8.10;80.80;;;;;;4992612;28;20816;-70
2023/04/07 05:19:51;;;;;;;16.30;9.00;;;8.00;80.60;;;;;;4993038;28;20199;-71
2023/04/07 05:22:16;;;;;;;14.37;8.80;;;8.00;80.90;;;;;;4992887;28;20209;-73
2023/04/07 05:24:42;;;;;;;15.40;8.73;;;8.00;81.40;;;;;;4990842;28;20631;-72
2023/04/07 05:27:07;;;;;;;16.53;9.40;;;8.00;81.40;;;;;;4992456;28;20191;-71
2023/04/07 05:29:33;;;;;;;16.60;9.37;;;8.00;81.50;;;;;;4995365;28;20179;-72
2023/04/07 05:32:00;;;;;;;20.00;9.67;;;7.90;81.80;;;;;;4991531;28;20551;-72
2023/04/07 05:34:26;;;;;;;17.57;9.90;;;7.90;82.20;;;;;;4984581;28;20214;-73
2023/04/07 05:36:51;;;;;;;18.13;10.00;;;8.00;82.70;;;;;;4989398;28;20426;-73
2023/04/07 05:39:17;;;;;;;14.40;8.37;;;7.90;82.40;;;;;;4993667;28;20445;-71
2023/04/07 05:41:43;;;;;;;18.90;9.13;;;7.90;82.40;;;;;;4994160;28;20190;-73
2023/04/07 05:44:08;;;;;;;17.00;9.50;;;8.00;82.40;;;;;;4988200;28;20246;-72
2023/04/07 05:46:34;;;;;;;16.73;9.00;;;8.00;82.70;;;;;;4992072;28;20186;-76
2023/04/07 05:49:00;;;;;;;17.67;9.80;;;8.10;82.80;;;;;;4991729;28;20268;-72
2023/04/07 05:51:25;;;;;;;14.87;9.03;;;8.20;82.40;;;;;;4992763;28;20599;-71
2023/04/07 05:53:51;;;;;;;16.60;9.37;;;8.20;82.10;;;;;;4987080;28;20462;-72
2023/04/07 05:56:16;;;;;;;16.50;9.20;;;8.20;81.90;;;;;;4992273;28;20183;-73
2023/04/07 05:58:42;;;;;;;18.00;9.60;;;8.20;81.80;;;;;;4996733;28;20189;-73
2023/04/07 06:01:07;;;;;;;18.40;10.00;;;8.30;81.70;;;;;;4995184;28;20245;-73
2023/04/07 06:03:33;;;;;;;16.67;8.80;;;8.30;81.20;;;;;;4993222;28;20190;-73
2023/04/07 06:05:59;;;;;;;15.57;9.00;;;8.40;80.90;;;;;;4997218;28;20213;-74
2023/04/07 06:08:24;;;;;;;16.83;8.70;;;8.40;81.10;;;;;;4994784;28;20661;-73
2023/04/07 06:10:50;;;;;;;16.90;8.90;;;8.40;80.90;;;;;;4993476;28;20672;-72
2023/04/07 06:13:16;;;;;;;19.80;9.03;;;8.50;80.20;;;;;;4987508;28;20297;-71
2023/04/07 06:15:42;;;;;;;15.43;8.83;;;8.50;80.00;;;;;;4985917;28;20516;-72
2023/04/07 06:18:08;;;;;;;17.60;8.20;;;8.50;80.50;;;;;;4990531;28;21098;-74
2023/04/07 06:20:34;;;;;;;17.87;9.60;;;8.50;80.50;;;;;;4991135;28;20672;-73
2023/04/07 06:23:00;;;;;;;18.83;8.67;;;8.50;80.20;;;;;;4994557;28;20190;-71
2023/04/07 06:25:25;;;;;;;17.37;8.50;;;8.50;80.00;;;;;;4987587;28;20477;-70
2023/04/07 06:27:52;;;;;;;24.37;9.40;;;8.60;79.70;;;;;;4994506;28;20202;-71
2023/04/07 06:30:17;;;;;;;20.77;10.30;;;8.70;79.60;;;;;;4993184;28;20605;-72
2023/04/07 06:32:43;;;;;;;17.00;9.50;;;8.70;79.50;;;;;;4990180;28;20516;-71
2023/04/07 06:35:08;;;;;;;18.90;10.47;;;8.80;79.60;;;;;;4983813;28;20210;-73
2023/04/07 06:37:34;;;;;;;19.23;10.20;;;8.90;79.30;;;;;;4992103;28;20245;-72
2023/04/07 06:40:00;;;;;;;17.90;9.43;;;8.90;78.90;;;;;;4990489;28;20619;-72
2023/04/07 06:42:25;;;;;;;18.47;9.43;;;9.00;78.70;;;;;;4989165;28;20670;-73
2023/04/07 06:44:51;;;;;;;15.93;8.90;;;9.10;78.60;;;;;;4989563;28;20211;-71
2023/04/07 06:47:17;;;;;;;16.83;8.83;;;9.20;78.30;;;;;;4989943;28;20206;-72
2023/04/07 06:49:43;;;;;;;17.73;8.60;;;9.30;77.60;;;;;;4990136;28;20786;-73
2023/04/07 06:52:08;;;;;;;19.80;10.03;;;9.40;77.10;;;;;;4990164;28;20182;-73
2023/04/07 06:54:34;;;;;;;20.07;10.27;;;9.40;77.10;;;;;;4990852;28;20634;-73
2023/04/07 06:57:00;;;;;;;16.60;9.40;;;9.50;77.30;;;;;;4999926;28;20194;-74
2023/04/07 06:59:26;;;;;;;18.30;9.43;;;9.50;77.00;;;;;;4997896;28;20674;-76
2023/04/07 07:01:51;;;;;;;18.20;9.87;;;9.50;77.00;;;;;;4990440;28;20449;-72
2023/04/07 07:04:17;;;;;;;17.90;9.83;;;9.60;76.50;;;;;;4990649;28;20261;-74
2023/04/07 07:06:42;;;;;;;20.50;10.30;;;9.60;76.80;;;;;;4995567;28;20205;-75
2023/04/07 07:09:08;;;;;;;20.03;10.43;;;9.60;76.70;;;;;;4991369;28;20214;-72
2023/04/07 07:11:34;;;;;;;18.80;9.23;;;9.60;76.50;;;;;;4991781;28;20321;-74
2023/04/07 07:13:59;;;;;;;19.03;9.87;;;9.60;76.20;;;;;;4986904;28;20215;-76
2023/04/07 07:16:25;;;;;;;19.67;10.53;;;9.60;76.10;;;;;;4992754;28;20187;-76
2023/04/07 07:18:51;;;;;;;18.73;9.97;;;9.70;75.80;;;;;;4991739;28;20195;-73
2023/04/07 07:21:17;;;;;;;19.80;9.93;;;9.70;75.80;;;;;;4991728;28;20218;-74
2023/04/07 07:23:43;;;;;;;17.23;9.30;;;9.70;75.80;;;;;;4988407;28;20585;-74
2023/04/07 07:26:09;;;;;;;19.80;9.90;;;9.80;75.80;;;;;;4989866;28;20444;-75
2023/04/07 07:28:35;;;;;;;20.00;10.60;;;9.80;75.50;;;;;;4983646;28;21039;-75
2023/04/07 07:31:07;;;;;;;17.63;9.60;;;9.80;75.20;;;;;;4986281;28;20195;-76
2023/04/07 07:33:33;;;;;;;15.17;8.73;;;9.80;75.40;;;;;;4985517;28;20186;-78
2023/04/07 07:35:59;;;;;;;16.17;8.60;;;9.70;73.60;;;;;;5003296;28;20426;-75
2023/04/07 07:38:26;;;;;;;16.17;8.83;;;9.50;73.50;;;;;;4993834;28;20441;-75
2023/04/07 07:40:52;;;;;;;16.97;8.93;;;9.40;74.00;;;;;;4991160;28;20281;-73
2023/04/07 07:43:17;;;;;;;14.13;8.60;;;9.30;74.60;;;;;;4991771;28;20512;-75
2023/04/07 07:45:43;;;;;;;15.17;8.40;;;9.30;75.10;;;;;;4985510;28;20187;-73
2023/04/07 07:48:09;;;;;;;17.30;9.80;;;9.30;74.90;;;;;;4990945;28;20736;-76
2023/04/07 07:50:35;;;;;;;17.33;9.73;;;9.30;75.10;;;;;;4986271;28;20279;-74
2023/04/07 07:53:00;;;;;;;14.87;8.80;;;9.30;75.20;;;;;;4989306;28;20210;-75
2023/04/07 07:55:26;;;;;;;14.37;9.07;;;9.30;74.90;;;;;;4988178;28;20206;-74
2023/04/07 07:57:52;;;;;;;18.13;9.67;;;9.40;74.80;;;;;;4990128;28;20186;-76
2023/04/07 08:00:17;;;;;;;18.63;9.57;;;9.40;74.50;;;;;;4991255;28;20194;-74
2023/04/07 08:02:43;;;;;;;14.80;8.40;;;9.40;74.50;;;;;;4991873;28;20204;-75
2023/04/07 08:05:09;;;;;;;13.50;9.20;;;9.40;75.10;;;;;;4990191;28;20222;-76
2023/04/07 08:07:35;;;;;;;23.67;9.30;;;9.50;74.80;;;;;;4991551;28;20301;-74
2023/04/07 08:10:01;;;;;;;17.50;9.47;;;9.50;74.50;;;;;;4993728;28;20532;-75
2023/04/07 08:12:26;;;;;;;14.13;7.97;;;9.70;74.20;;;;;;4992462;28;20521;-76
2023/04/07 08:14:52;;;;;;;15.80;8.97;;;9.80;73.70;;;;;;4995545;28;20744;-76
2023/04/07 08:17:17;;;;;;;15.63;8.73;;;9.90;73.50;;;;;;4997358;28;20190;-74
2023/04/07 08:19:43;;;;;;;19.30;9.40;;;10.00;73.60;;;;;;4995986;28;20215;-76
2023/04/07 08:22:08;;;;;;;17.50;9.63;;;10.20;73.50;;;;;;4999917;28;20202;-77
2023/04/07 08:24:34;;;;;;;15.87;8.90;;;10.20;73.30;;;;;;4992453;28;20237;-77
2023/04/07 08:27:00;;;;;;;14.40;8.63;;;10.30;73.20;;;;;;4997990;28;20222;-75
2023/04/07 08:29:26;;;;;;;18.20;8.90;;;10.40;72.90;;;;;;4997886;28;20187;-75
2023/04/07 08:31:51;;;;;;;13.40;7.70;;;10.60;72.40;;;;;;5002021;28;20222;-74
2023/04/07 08:34:19;;;;;;;13.17;8.17;;;10.60;71.40;;;;;;4996812;28;20218;-77
2023/04/07 08:36:45;;;;;;;13.50;7.93;;;10.50;71.40;;;;;;4987369;28;20229;-76
2023/04/07 08:39:11;;;;;;;14.03;7.40;;;10.30;71.70;;;;;;4992323;28;20446;-76
2023/04/07 08:41:39;;;;;;;14.70;8.20;;;10.40;72.00;;;;;;4991650;28;20497;-75
2023/04/07 08:44:06;;;;;;;13.40;8.00;;;10.50;71.60;;;;;;4987846;28;20207;-75
2023/04/07 08:46:32;;;;;;;13.30;8.23;;;10.50;71.40;;;;;;4994702;28;20429;-76
2023/04/07 08:49:00;;;;;;;13.20;7.37;;;10.50;71.60;;;;;;5000268;28;20485;-75
2023/04/07 08:51:31;;;;;;;16.87;8.40;;;10.60;71.60;;;;;;4992514;28;20513;-75
2023/04/07 08:54:23;;;;;;;11.97;7.80;;;10.80;71.10;;;;;;4994473;28;20516;-75
2023/04/07 08:56:49;;;;;;;11.00;6.50;;;10.80;71.10;;;;;;4999495;28;20980;-76
2023/04/07 08:59:17;;;;;;;15.60;7.83;;;10.70;71.00;;;;;;4989358;28;20426;-76
2023/04/07 09:01:43;;;;;;;13.27;7.57;;;10.80;71.10;;;;;;4989144;28;20425;-76
2023/04/07 09:04:09;;;;;;;15.83;7.80;;;10.80;71.10;;;;;;4988226;28;20464;-75
2023/04/07 09:06:37;;;;;;;11.80;7.83;;;11.00;70.70;;;;;;4989002;28;20437;-76
2023/04/07 09:09:06;;;;;;;13.77;7.63;;;11.00;70.50;;;;;;4989982;28;20476;-76
2023/04/07 09:11:37;;;;;;;17.40;8.00;;;11.10;70.10;;;;;;4989486;28;20429;-75
2023/04/07 09:14:03;;;;;;;14.87;7.30;;;11.20;70.10;;;;;;4979470;28;20458;-73
2023/04/07 09:16:31;;;;;;;14.53;7.37;;;11.10;69.80;;;;;;4988763;28;20432;-73
2023/04/07 09:18:58;;;;;;;12.90;7.80;;;11.10;70.20;;;;;;4990090;28;20433;-75
2023/04/07 09:21:24;;;;;;;16.57;7.37;;;11.20;70.40;;;;;;4990658;28;20425;-77
2023/04/07 09:23:49;;;;;;;13.60;7.50;;;11.30;69.80;;;;;;4985978;28;21010;-74
2023/04/07 09:26:23;;;;;;;12.90;7.50;;;11.30;69.90;;;;;;4989867;28;20426;-75
2023/04/07 09:28:54;;;;;;;14.37;7.70;;;11.30;69.80;;;;;;4987799;28;20216;-76
2023/04/07 09:31:21;;;;;;;14.73;6.70;;;11.20;69.80;;;;;;4990700;28;20913;-78
2023/04/07 09:33:48;;;;;;;12.93;6.87;;;11.50;70.10;;;;;;4986320;28;20464;-74
2023/04/07 09:36:14;;;;;;;12.27;6.60;;;11.70;69.70;;;;;;4989850;28;20445;-75
2023/04/07 09:38:40;;;;;;;11.00;7.73;;;12.00;69.10;;;;;;4991896;28;20525;-75
2023/04/07 09:41:11;;;;;;;9.97;6.33;;;12.30;68.30;;;;;;4993029;28;20191;-75
2023/04/07 09:43:44;;;;;;;11.07;6.47;;;12.50;68.30;;;;;;4986890;28;20433;-74
2023/04/07 09:46:16;;;;;;;12.90;7.77;;;12.70;67.50;;;;;;4991009;28;20418;-73
2023/04/07 09:48:43;;;;;;;13.70;7.50;;;12.80;67.50;;;;;;4987464;28;20612;-74
2023/04/07 09:51:16;;;;;;;11.93;6.80;;;12.50;67.50;;;;;;4985694;28;21128;-74
2023/04/07 09:53:46;;;;;;;11.30;7.60;;;12.30;68.00;;;;;;4985622;28;20437;-73
2023/04/07 09:56:12;;;;;;;13.10;7.63;;;12.50;68.20;;;;;;4988310;28;20433;-75
2023/04/07 09:58:39;;;;;;;15.67;6.67;;;12.50;68.20;;;;;;4993602;28;20456;-73
2023/04/07 10:01:07;;;;;;;11.07;7.10;;;12.50;68.20;;;;;;4988486;28;20421;-73
2023/04/07 10:03:33;;;;;;;12.93;7.40;;;12.30;68.20;;;;;;4982727;28;20937;-75
2023/04/07 10:06:02;;;;;;;13.60;7.03;;;12.20;68.60;;;;;;4986458;28;20455;-73
2023/04/07 10:08:31;;;;;;;15.40;7.57;;;12.20;68.80;;;;;;4987456;28;20489;-73
2023/04/07 10:11:00;;;;;;;11.13;7.23;;;12.40;68.90;;;;;;4994412;28;20550;-72
2023/04/07 10:13:27;;;;;;;12.60;7.27;;;12.30;68.60;;;;;;4988222;28;20800;-73
2023/04/07 10:15:53;;;;;;;12.63;7.50;;;12.30;69.20;;;;;;4986198;28;20422;-74
2023/04/07 10:18:19;;;;;;;14.10;6.47;;;12.30;68.90;;;;;;4991742;28;20495;-74
2023/04/07 10:20:48;;;;;;;11.03;7.00;;;12.40;68.90;;;;;;4993125;28;20956;-72
2023/04/07 10:23:24;;;;;;;14.27;7.27;;;12.50;68.60;;;;;;4992728;28;20501;-73
2023/04/07 10:25:52;;;;;;;14.23;7.50;;;12.50;68.60;;;;;;4990767;28;20987;-74
2023/04/07 10:28:22;;;;;;;12.77;7.40;;;12.60;68.30;;;;;;4990155;28;20544;-75
2023/04/07 10:30:48;;;;;;;14.50;8.13;;;12.50;68.30;;;;;;4993196;28;20426;-75
2023/04/07 10:33:14;;;;;;;11.90;7.50;;;12.40;68.60;;;;;;4992193;28;20417;-74
2023/04/07 10:36:01;;;;;;;16.13;7.13;;;12.30;69.10;;;;;;4987815;28;20460;-74
2023/04/07 10:38:28;;;;;;;14.60;7.37;;;12.40;68.80;;;;;;4994646;28;20193;-72
2023/04/07 10:40:53;;;;;;;12.07;7.10;;;12.30;68.90;;;;;;4992585;28;20429;-73
2023/04/07 10:43:40;;;;;;;11.97;7.60;;;12.40;69.10;;;;;;4992626;28;20436;-73
2023/04/07 10:46:06;;;;;;;11.27;6.80;;;12.60;69.20;;;;;;4990973;28;20198;-74
2023/04/07 10:48:32;;;;;;;12.40;6.43;;;12.80;68.80;;;;;;4992020;28;20465;-75
2023/04/07 10:51:04;;;;;;;13.77;7.47;;;12.90;68.20;;;;;;4992262;28;20440;-72
2023/04/07 10:53:33;;;;;;;10.83;6.30;;;12.80;68.00;;;;;;4990343;28;20430;-73
2023/04/07 10:55:59;;;;;;;10.67;6.83;;;12.70;68.00;;;;;;4990277;28;20971;-73
2023/04/07 10:58:29;;;;;;;12.40;7.23;;;12.70;68.50;;;;;;4991354;28;20425;-73
2023/04/07 11:01:07;;;;;;;10.20;6.30;;;12.80;67.70;;;;;;4988806;28;20476;-74
2023/04/07 11:03:35;;;;;;;16.17;7.20;;;12.80;67.60;;;;;;4988376;28;20417;-73
2023/04/07 11:06:07;;;;;;;12.73;6.33;;;12.90;67.60;;;;;;4990089;28;20539;-74
2023/04/07 11:08:37;;;;;;;12.70;6.60;;;12.90;67.60;;;;;;4989917;28;20468;-72
2023/04/07 11:11:08;;;;;;;11.70;6.67;;;13.00;67.20;;;;;;4991414;28;20560;-74
2023/04/07 11:13:45;;;;;;;7.83;6.30;;;13.10;66.60;;;;;;4988084;28;20429;-74
2023/04/07 11:16:11;;;;;;;14.03;6.87;;;13.20;66.70;;;;;;4988852;28;20425;-73
2023/04/07 11:18:38;;;;;;;11.33;6.50;;;13.20;66.30;;;;;;4990766;28;20517;-75
2023/04/07 11:21:05;;;;;;;12.93;6.40;;;13.40;66.00;;;;;;4991991;28;20892;-74
2023/04/07 11:23:41;;;;;;;11.40;6.67;;;13.30;66.00;;;;;;4990092;28;20430;-73
2023/04/07 11:26:10;;;;;;;10.87;5.70;;;13.10;66.30;;;;;;4988916;28;20484;-73
2023/04/07 11:28:46;;;;;;;8.67;5.43;;;13.20;66.60;;;;;;4992638;28;20476;-73
2023/04/07 11:31:12;;;;;;;13.10;6.83;;;13.10;66.00;;;;;;4992073;28;20425;-73
2023/04/07 11:33:40;;;;;;;9.47;6.63;;;12.90;66.40;;;;;;4989630;28;20433;-75
2023/04/07 11:36:06;;;;;;;16.20;6.77;;;12.80;67.20;;;;;;4987493;28;20421;-73
2023/04/07 11:38:37;;;;;;;10.40;6.03;;;12.70;67.70;;;;;;4989716;28;20469;-73
2023/04/07 11:41:14;;;;;;;11.10;6.20;;;12.80;68.30;;;;;;4984758;28;20436;-73
2023/04/07 11:43:40;;;;;;;16.90;7.20;;;12.90;67.90;;;;;;4988845;28;21115;-73
2023/04/07 11:46:16;;;;;;;12.90;6.53;;;13.10;69.10;;;;;;4989432;28;20418;-72
2023/04/07 11:48:43;;;;;;;13.23;7.90;;;13.00;68.90;;;;;;4990242;28;20492;-74
2023/04/07 11:51:26;;;;;;;10.43;6.90;;;12.80;69.80;;;;;;4989235;28;20553;-75
2023/04/07 11:53:55;;;;;;;12.27;7.20;;;12.80;69.50;;;;;;4981869;28;20458;-75
2023/04/07 11:56:21;;;;;;;13.73;8.43;;;12.80;69.90;;;;;;4989049;28;20477;-73
2023/04/07 11:58:51;;;;;;;16.47;8.00;;;12.70;70.40;;;;;;4990150;28;20418;-72
2023/04/07 12:01:16;;;;;;;12.30;7.63;;;12.40;70.80;;;;;;4988836;28;20425;-72
2023/04/07 12:03:58;;;;;;;17.03;8.70;;;12.00;71.10;;;;;;4988854;28;20472;-71
2023/04/07 12:06:37;;;;;;;19.83;8.90;;;11.90;72.30;;;;;;4990979;28;20530;-72
2023/04/07 12:09:04;;;;;;;18.03;8.77;;;11.80;73.30;;;;;;4988144;28;20465;-71
2023/04/07 12:11:30;;;;;;;15.40;8.57;;;11.70;74.60;;;;;;4991005;28;20512;-74
2023/04/07 12:13:56;;;;;;;15.93;9.10;;;11.50;75.80;;;;;;4987423;28;20458;-70
2023/04/07 12:16:22;;;;;;;17.70;9.17;;;11.30;77.40;;;;;;4990479;28;20424;-73
2023/04/07 12:18:50;;;;;;;18.00;10.30;;;11.10;78.30;;;;;;4986078;28;20186;-73
2023/04/07 12:21:16;;;;;;;12.10;7.07;;;11.10;79.90;;;;;;4990331;28;20433;-71
2023/04/07 12:23:42;;;;;;;13.80;8.40;;;10.90;79.30;;;;;;4986925;28;20449;-72
2023/04/07 12:26:08;;;;;;;12.53;8.07;;;10.80;79.50;;;;;;4987882;28;20483;-73
2023/04/07 12:28:33;;;;;;;14.17;8.73;;;10.70;79.30;;;;;;4991321;28;20209;-71
2023/04/07 12:30:59;;;;;;;13.40;7.80;;;10.70;80.60;;;;;;4990317;28;20457;-71
2023/04/07 12:33:24;;;;;;;12.90;8.17;;;10.70;80.80;;;;;;4988637;28;20190;-73
2023/04/07 12:35:50;;;;;;;14.83;7.47;;;10.80;80.60;;;;;;4986712;28;20714;-71
2023/04/07 12:38:16;;;;;;;13.63;7.13;;;10.70;78.90;;;;;;4989215;28;20178;-71
2023/04/07 12:40:42;;;;;;;14.13;7.67;;;10.70;78.90;;;;;;4990454;28;20800;-73
2023/04/07 12:43:08;;;;;;;11.10;6.50;;;10.60;79.30;;;;;;4988576;28;20527;-71